createdAt,value
2022-09-28T00:00:19.609Z,6.80
2022-09-28T00:02:46.361Z,6.60
2022-09-28T00:05:13.056Z,6.90
2022-09-28T00:07:39.699Z,8.20
2022-09-28T00:10:06.524Z,6.90
2022-09-28T00:12:33.734Z,7.10
2022-09-28T00:15:00.395Z,6.90
2022-09-28T00:17:26.967Z,6.10
2022-09-28T00:19:54.008Z,6.70
2022-09-28T00:22:20.588Z,6.70
2022-09-28T00:24:47.493Z,6.20
2022-09-28T00:27:14.096Z,6.60
2022-09-28T00:32:10.518Z,6.90
2022-09-28T00:34:41.257Z,6.90
2022-09-28T00:37:10.874Z,7.00
2022-09-28T00:39:38.467Z,6.80
2022-09-28T00:42:11.271Z,7.00
2022-09-28T00:44:39.345Z,7.00
2022-09-28T00:47:05.925Z,7.20
2022-09-28T00:49:38.607Z,7.00
2022-09-28T00:52:06.120Z,7.00
2022-09-28T00:54:33.498Z,6.90
2022-09-28T00:57:01.181Z,7.00
2022-09-28T00:59:27.917Z,6.90
2022-09-28T01:01:54.576Z,7.00
2022-09-28T01:04:22.183Z,7.00
2022-09-28T01:06:49.802Z,7.00
2022-09-28T01:09:18.239Z,7.00
2022-09-28T01:11:45.082Z,7.00
2022-09-28T01:14:13.210Z,7.00
2022-09-28T01:16:42.932Z,7.00
2022-09-28T01:19:18.727Z,7.00
2022-09-28T01:21:48.490Z,7.10
2022-09-28T01:24:21.672Z,7.10
2022-09-28T01:27:03.275Z,7.10
2022-09-28T01:29:36.011Z,7.00
2022-09-28T01:32:21.306Z,7.10
2022-09-28T01:34:54.716Z,7.10
2022-09-28T01:37:21.976Z,7.10
2022-09-28T01:39:49.837Z,7.10
2022-09-28T01:42:18.755Z,7.10
2022-09-28T01:44:47.437Z,7.20
2022-09-28T01:47:15.398Z,7.20
2022-09-28T01:49:44.880Z,7.20
2022-09-28T01:52:15.998Z,7.20
2022-09-28T01:54:50.174Z,7.20
2022-09-28T01:57:16.723Z,7.30
2022-09-28T01:59:45.805Z,7.30
2022-09-28T02:02:24.990Z,7.40
2022-09-28T02:04:57.736Z,7.50
2022-09-28T02:07:34.748Z,7.50
2022-09-28T02:10:05.459Z,7.50
2022-09-28T02:12:37.267Z,7.50
2022-09-28T02:15:11.763Z,7.50
2022-09-28T02:17:38.502Z,7.60
2022-09-28T02:20:05.352Z,7.50
2022-09-28T02:22:34.208Z,7.50
2022-09-28T02:25:19.731Z,7.50
2022-09-28T02:27:58.152Z,7.40
2022-09-28T02:30:24.908Z,7.40
2022-09-28T02:32:53.597Z,7.40
2022-09-28T02:35:20.720Z,7.40
2022-09-28T02:37:47.417Z,7.40
2022-09-28T02:40:18.836Z,7.40
2022-09-28T02:43:04.601Z,7.40
2022-09-28T02:45:51.777Z,7.30
2022-09-28T02:48:43.577Z,7.40
2022-09-28T03:55:35.382Z,7.40
2022-09-28T03:58:02.161Z,7.50
2022-09-28T04:00:28.742Z,7.50
2022-09-28T04:02:55.384Z,7.40
2022-09-28T04:05:21.977Z,7.40
2022-09-28T04:07:48.568Z,7.50
2022-09-28T04:10:15.138Z,7.50
2022-09-28T04:12:41.774Z,7.50
2022-09-28T04:15:08.511Z,8.00
2022-09-28T04:17:39.830Z,7.50
2022-09-28T04:20:07.185Z,7.40
2022-09-28T04:22:33.849Z,7.50
2022-09-28T04:25:00.409Z,7.40
2022-09-28T04:27:45.593Z,7.40
2022-09-28T04:30:12.211Z,7.50
2022-09-28T04:32:38.829Z,7.50
2022-09-28T04:35:05.732Z,7.50
2022-09-28T04:37:32.299Z,7.50
2022-09-28T04:39:58.944Z,7.50
2022-09-28T04:42:25.742Z,7.50
2022-09-28T04:44:52.283Z,7.50
2022-09-28T04:47:18.832Z,7.50
2022-09-28T04:49:45.384Z,7.50
2022-09-28T04:52:17.860Z,7.50
2022-09-28T04:54:44.943Z,7.60
2022-09-28T04:57:11.482Z,7.60
2022-09-28T04:59:38.015Z,7.60
2022-09-28T05:02:04.895Z,7.60
2022-09-28T05:04:31.538Z,7.60
2022-09-28T05:06:58.105Z,7.60
2022-09-28T05:09:24.636Z,7.60
2022-09-28T05:11:53.097Z,7.60
2022-09-28T05:14:21.958Z,7.70
2022-09-28T05:16:49.089Z,7.70
2022-09-28T05:19:15.922Z,7.70
2022-09-28T05:21:46.825Z,7.70
2022-09-28T05:24:13.453Z,7.70
2022-09-28T05:26:40.066Z,7.70
2022-09-28T05:29:06.618Z,7.70
2022-09-28T05:31:33.278Z,7.70
2022-09-28T05:33:59.907Z,7.70
2022-09-28T05:36:27.845Z,7.70
2022-09-28T05:38:54.413Z,7.70
2022-09-28T05:41:21.044Z,7.80
2022-09-28T05:43:47.653Z,7.80
2022-09-28T05:46:14.680Z,7.80
2022-09-28T05:48:41.326Z,7.70
2022-09-28T05:51:10.112Z,7.80
2022-09-28T05:53:36.697Z,7.50
2022-09-28T05:56:03.338Z,7.80
2022-09-28T05:58:29.900Z,7.70
2022-09-28T06:00:56.498Z,7.80
2022-09-28T06:03:23.417Z,7.80
2022-09-28T06:05:50.235Z,7.90
2022-09-28T06:08:17.080Z,8.30
2022-09-28T06:10:43.656Z,7.90
2022-09-28T06:13:11.991Z,8.00
2022-09-28T06:15:39.139Z,8.00
2022-09-28T06:18:06.879Z,8.00
2022-09-28T06:20:34.844Z,8.20
2022-09-28T06:23:01.474Z,8.10
2022-09-28T06:25:28.392Z,8.20
2022-09-28T06:27:58.076Z,8.20
2022-09-28T06:30:27.032Z,8.20
2022-09-28T06:32:58.461Z,8.30
2022-09-28T06:35:26.103Z,8.40
2022-09-28T06:37:53.123Z,8.40
2022-09-28T06:40:20.545Z,8.60
2022-09-28T06:42:55.063Z,8.10
2022-09-28T06:45:25.221Z,8.70
2022-09-28T06:47:58.965Z,8.70
2022-09-28T06:50:26.617Z,8.80
2022-09-28T06:52:54.136Z,8.90
2022-09-28T06:55:21.339Z,8.90
2022-09-28T06:57:48.011Z,9.00
2022-09-28T07:00:14.855Z,8.60
2022-09-28T07:02:41.576Z,8.90
2022-09-28T07:05:09.525Z,8.70
2022-09-28T07:07:36.484Z,8.90
2022-09-28T07:10:03.142Z,8.50
2022-09-28T07:12:30.198Z,8.90
2022-09-28T07:14:57.632Z,8.80
2022-09-28T07:17:24.457Z,8.80
2022-09-28T07:19:55.872Z,8.60
2022-09-28T07:22:37.206Z,9.40
2022-09-28T07:25:09.062Z,8.10
2022-09-28T07:27:39.523Z,8.80
2022-09-28T07:30:06.421Z,8.70
2022-09-28T07:32:37.114Z,9.00
2022-09-28T07:35:07.964Z,9.00
2022-09-28T07:37:35.917Z,9.30
2022-09-28T07:40:22.522Z,8.60
2022-09-28T07:42:49.202Z,9.40
2022-09-28T07:45:15.842Z,9.50
2022-09-28T07:47:42.899Z,9.60
2022-09-28T07:50:09.852Z,9.60
2022-09-28T07:52:36.398Z,9.60
2022-09-28T07:55:07.009Z,9.30
2022-09-28T07:57:34.829Z,9.20
2022-09-28T08:00:02.355Z,9.40
2022-09-28T08:02:29.021Z,9.30
2022-09-28T08:04:56.338Z,9.20
2022-09-28T08:07:24.266Z,9.20
2022-09-28T08:09:51.334Z,9.30
2022-09-28T08:12:19.681Z,9.40
2022-09-28T08:14:46.685Z,9.40
2022-09-28T08:17:13.629Z,9.30
2022-09-28T08:19:58.826Z,10.10
2022-09-28T08:22:25.392Z,9.30
2022-09-28T08:24:51.956Z,9.20
2022-09-28T08:27:18.587Z,9.00
2022-09-28T08:29:45.235Z,8.60
2022-09-28T08:32:11.838Z,8.70
2022-09-28T08:34:39.358Z,9.20
2022-09-28T08:37:06.435Z,8.60
2022-09-28T08:39:34.745Z,8.70
2022-09-28T08:42:04.377Z,8.40
2022-09-28T08:44:57.324Z,8.90
2022-09-28T08:47:58.699Z,9.30
2022-09-28T08:50:28.229Z,9.50
2022-09-28T08:52:59.573Z,9.60
2022-09-28T08:55:46.725Z,9.60
2022-09-28T08:58:13.233Z,9.50
2022-09-28T09:00:42.573Z,9.50
2022-09-28T09:03:13.530Z,9.50
2022-09-28T09:06:00.212Z,9.50
2022-09-28T09:08:37.895Z,9.50
2022-09-28T09:11:23.785Z,9.60
2022-09-28T09:14:09.224Z,9.60
2022-09-28T09:16:51.179Z,9.90
2022-09-28T09:21:52.248Z,9.80
2022-09-28T09:24:34.465Z,9.90
2022-09-28T09:27:01.609Z,9.90
2022-09-28T09:29:32.026Z,10.30
2022-09-28T09:32:17.166Z,10.20
2022-09-28T09:34:56.918Z,10.20
2022-09-28T09:37:40.439Z,10.00
2022-09-28T09:40:09.878Z,10.10
2022-09-28T09:43:06.625Z,10.10
2022-09-28T09:45:52.157Z,10.30
2022-09-28T09:48:25.284Z,10.50
2022-09-28T09:50:55.526Z,10.80
2022-09-28T09:53:38.558Z,10.90
2022-09-28T09:56:14.591Z,10.80
2022-09-28T09:58:44.637Z,11.20
2022-09-28T10:01:13.854Z,12.50
2022-09-28T10:03:42.645Z,11.60
2022-09-28T10:06:17.200Z,11.50
2022-09-28T10:08:52.165Z,11.50
2022-09-28T10:11:29.706Z,11.40
2022-09-28T10:14:04.888Z,11.30
2022-09-28T10:16:32.988Z,11.60
2022-09-28T10:19:00.374Z,11.40
2022-09-28T10:21:27.698Z,11.50
2022-09-28T10:23:58.498Z,11.80
2022-09-28T10:26:28.202Z,11.80
2022-09-28T10:28:59.496Z,11.90
2022-09-28T10:31:35.507Z,12.10
2022-09-28T10:34:02.611Z,12.40
2022-09-28T10:36:29.151Z,12.20
2022-09-28T10:38:56.490Z,11.90
2022-09-28T10:41:23.012Z,12.00
2022-09-28T10:44:06.142Z,12.30
2022-09-28T10:46:35.220Z,13.00
2022-09-28T10:49:03.487Z,13.50
2022-09-28T10:51:40.283Z,13.60
2022-09-28T10:54:13.157Z,13.60
2022-09-28T10:56:40.154Z,12.90
2022-09-28T10:59:23.036Z,11.70
2022-09-28T11:01:53.869Z,11.90
2022-09-28T11:04:21.988Z,13.20
2022-09-28T11:06:49.378Z,12.60
2022-09-28T11:09:38.919Z,12.40
2022-09-28T11:12:06.670Z,12.50
2022-09-28T11:14:42.104Z,13.60
2022-09-28T11:17:18.219Z,12.10
2022-09-28T11:19:45.079Z,12.40
2022-09-28T11:22:30.541Z,11.40
2022-09-28T11:25:15.896Z,12.40
2022-09-28T11:28:04.812Z,12.90
2022-09-28T11:30:51.844Z,13.40
2022-09-28T11:33:20.577Z,13.30
2022-09-28T11:36:05.537Z,13.10
2022-09-28T11:38:47.466Z,13.00
2022-09-28T11:41:33.293Z,12.80
2022-09-28T11:44:03.034Z,13.50
2022-09-28T11:46:29.584Z,14.10
2022-09-28T11:51:25.255Z,14.10
2022-09-28T11:54:16.999Z,13.20
2022-09-28T11:56:45.508Z,13.70
2022-09-28T11:59:18.737Z,13.80
2022-09-28T12:01:57.003Z,13.40
2022-09-28T12:04:26.371Z,13.10
2022-09-28T12:06:59.079Z,13.20
2022-09-28T12:09:32.446Z,13.10
2022-09-28T12:12:02.337Z,12.70
2022-09-28T12:14:34.359Z,12.50
2022-09-28T12:17:07.337Z,12.70
2022-09-28T12:19:55.318Z,13.50
2022-09-28T12:22:57.520Z,13.30
2022-09-28T12:25:24.474Z,13.10
2022-09-28T12:28:03.168Z,12.80
2022-09-28T12:30:32.966Z,12.80
2022-09-28T12:33:15.275Z,12.90
2022-09-28T12:35:56.904Z,12.90
2022-09-28T12:38:42.086Z,12.70
2022-09-28T12:41:16.624Z,12.50
2022-09-28T12:44:03.879Z,12.30
2022-09-28T12:46:54.226Z,12.40
2022-09-28T12:50:27.271Z,12.80
2022-09-28T12:52:39.131Z,12.70
2022-09-28T12:55:17.601Z,12.20
2022-09-28T12:57:44.127Z,12.10
2022-09-28T13:00:17.963Z,12.00
2022-09-28T13:02:49.896Z,12.10
2022-09-28T13:05:33.254Z,14.20
2022-09-28T13:10:38.058Z,15.50
2022-09-28T13:16:19.095Z,15.70
2022-09-28T13:19:04.379Z,16.70
2022-09-28T13:21:44.070Z,16.90
2022-09-28T13:26:59.740Z,17.20
2022-09-28T13:29:26.887Z,16.90
2022-09-28T13:31:57.080Z,15.30
2022-09-28T13:34:28.948Z,16.00
2022-09-28T13:37:14.056Z,16.10
2022-09-28T13:39:52.538Z,16.60
2022-09-28T13:42:24.044Z,18.30
2022-09-28T13:44:59.399Z,17.90
2022-09-28T13:47:35.296Z,17.60
2022-09-28T13:50:20.562Z,17.60
2022-09-28T13:55:33.177Z,20.30
2022-09-28T14:03:10.568Z,19.80
2022-09-28T14:12:59.029Z,16.00
2022-09-28T14:15:28.804Z,15.10
2022-09-28T14:18:10.693Z,15.20
2022-09-28T14:20:37.290Z,16.60
2022-09-28T14:23:27.980Z,17.60
2022-09-28T14:26:00.567Z,18.40
2022-09-28T14:28:30.183Z,18.40
2022-09-28T14:30:58.231Z,17.40
2022-09-28T14:35:56.538Z,18.40
2022-09-28T14:38:43.310Z,18.50
2022-09-28T14:41:24.187Z,18.30
2022-09-28T14:43:50.717Z,17.70
2022-09-28T14:46:17.575Z,18.60
2022-09-28T14:51:26.555Z,18.20
2022-09-28T14:53:53.122Z,18.10
2022-09-28T14:56:20.344Z,18.60
2022-09-28T14:58:51.783Z,18.90
2022-09-28T15:06:17.257Z,18.70
2022-09-28T15:08:43.926Z,18.30
2022-09-28T15:11:24.266Z,18.50
2022-09-28T15:19:02.065Z,19.50
2022-09-28T15:23:55.631Z,19.10
2022-09-28T15:26:40.361Z,19.50
2022-09-28T15:29:16.698Z,16.70
2022-09-28T15:31:43.263Z,15.10
2022-09-28T15:34:44.755Z,14.70
2022-09-28T15:37:11.833Z,14.70
2022-09-28T15:39:38.692Z,16.30
2022-09-28T15:42:05.632Z,17.00
2022-09-28T15:44:33.921Z,17.10
2022-09-28T15:47:24.817Z,17.30
2022-09-28T15:49:58.483Z,17.80
2022-09-28T15:52:34.052Z,15.50
2022-09-28T15:55:01.696Z,14.70
2022-09-28T15:57:32.958Z,14.20
2022-09-28T16:00:00.678Z,14.20
2022-09-28T16:02:27.583Z,13.80
2022-09-28T16:04:55.526Z,13.70
2022-09-28T16:07:25.143Z,13.20
2022-09-28T16:10:10.452Z,12.70
2022-09-28T16:12:37.147Z,13.00
2022-09-28T16:15:24.028Z,13.00
2022-09-28T16:18:00.515Z,13.00
2022-09-28T16:20:29.455Z,12.90
2022-09-28T16:22:59.448Z,12.80
2022-09-28T16:25:26.647Z,12.80
2022-09-28T16:27:54.999Z,12.70
2022-09-28T16:30:25.394Z,12.60
2022-09-28T16:32:56.731Z,12.40
2022-09-28T16:35:23.376Z,12.20
2022-09-28T16:37:56.446Z,12.20
2022-09-28T16:40:23.159Z,12.00
2022-09-28T16:42:49.854Z,11.90
2022-09-28T16:45:20.970Z,11.70
2022-09-28T16:50:17.151Z,11.50
2022-09-28T16:53:12.912Z,11.40
2022-09-28T16:55:40.865Z,11.20
2022-09-28T16:58:08.119Z,10.90
2022-09-28T17:00:34.771Z,10.90
2022-09-28T17:03:02.203Z,11.00
2022-09-28T17:05:29.428Z,10.90
2022-09-28T17:08:03.267Z,10.80
2022-09-28T17:10:50.056Z,10.80
2022-09-28T17:13:34.650Z,10.70
2022-09-28T17:16:03.073Z,10.60
2022-09-28T17:18:31.870Z,10.50
2022-09-28T17:21:00.395Z,10.40
2022-09-28T17:30:49.226Z,9.40
2022-09-28T17:33:15.893Z,9.70
2022-09-28T17:35:43.187Z,9.00
2022-09-28T17:38:13.698Z,8.90
2022-09-28T17:40:40.538Z,9.50
2022-09-28T17:43:07.218Z,8.90
2022-09-28T17:45:36.852Z,8.70
2022-09-28T17:50:35.106Z,9.10
2022-09-28T17:53:05.972Z,9.00
2022-09-28T17:55:34.310Z,8.30
2022-09-28T17:58:01.587Z,8.60
2022-09-28T18:00:28.510Z,8.20
2022-09-28T18:02:55.869Z,8.20
2022-09-28T18:05:24.934Z,8.50
2022-09-28T18:07:52.145Z,8.30
2022-09-28T18:10:21.300Z,8.40
2022-09-28T18:12:49.131Z,8.30
2022-09-28T18:17:42.790Z,8.50
2022-09-28T18:20:10.088Z,8.10
2022-09-28T18:22:36.689Z,8.30
2022-09-28T18:27:30.681Z,8.00
2022-09-28T18:29:57.284Z,7.80
2022-09-28T18:32:23.892Z,7.80
2022-09-28T18:34:50.518Z,7.60
2022-09-28T18:37:17.141Z,7.40
2022-09-28T18:39:43.793Z,7.40
2022-09-28T18:42:10.552Z,7.50
2022-09-28T18:44:37.108Z,7.40
2022-09-28T18:47:03.709Z,7.40
2022-09-28T18:49:31.146Z,7.30
2022-09-28T18:51:57.709Z,7.40
2022-09-28T18:56:56.297Z,7.40
2022-09-28T18:59:23.366Z,7.50
2022-09-28T19:01:50.183Z,7.60
2022-09-28T19:04:16.967Z,7.50
2022-09-28T19:06:44.640Z,7.50
2022-09-28T19:09:11.621Z,7.30
2022-09-28T19:11:38.184Z,7.40
2022-09-28T19:14:04.747Z,7.30
2022-09-28T19:16:33.639Z,7.20
2022-09-28T19:19:02.580Z,6.70
2022-09-28T19:21:29.888Z,6.80
2022-09-28T19:23:56.500Z,7.00
2022-09-28T19:26:24.399Z,6.90
2022-09-28T19:28:50.953Z,6.80
2022-09-28T19:31:18.074Z,6.80
2022-09-28T19:33:48.155Z,6.70
2022-09-28T19:36:17.179Z,6.80
2022-09-28T19:38:44.106Z,6.80
2022-09-28T19:41:11.767Z,7.00
2022-09-28T19:43:39.109Z,6.80
2022-09-28T19:46:06.125Z,6.70
2022-09-28T19:48:33.863Z,6.90
2022-09-28T19:51:05.521Z,7.00
2022-09-28T19:53:33.539Z,6.90
2022-09-28T19:56:03.722Z,6.90
2022-09-28T19:58:32.159Z,6.30
2022-09-28T20:00:58.710Z,6.90
2022-09-28T20:03:25.884Z,6.90
2022-09-28T20:05:59.420Z,6.90
2022-09-28T20:08:26.571Z,7.00
2022-09-28T20:10:54.629Z,7.10
2022-09-28T20:13:21.677Z,7.00
2022-09-28T20:15:48.361Z,7.10
2022-09-28T20:18:15.187Z,7.10
2022-09-28T20:20:42.519Z,7.00
2022-09-28T20:23:09.562Z,6.90
2022-09-28T20:25:36.127Z,6.90
2022-09-28T20:28:02.643Z,6.90
2022-09-28T20:30:29.220Z,6.90
2022-09-28T20:32:55.767Z,6.80
2022-09-28T20:35:32.093Z,7.00
2022-09-28T20:38:07.725Z,7.00
2022-09-28T20:40:36.367Z,7.00
2022-09-28T20:43:08.758Z,7.00
2022-09-28T20:45:38.412Z,7.10
2022-09-28T20:48:12.823Z,7.10
2022-09-28T20:50:40.587Z,7.00
2022-09-28T20:53:07.165Z,6.90
2022-09-28T20:55:33.747Z,7.00
2022-09-28T20:58:03.811Z,6.90
2022-09-28T21:00:30.683Z,6.90
2022-09-28T21:02:57.539Z,6.90
2022-09-28T21:05:24.215Z,6.80
2022-09-28T21:07:50.830Z,6.90
2022-09-28T21:10:17.393Z,7.00
2022-09-28T21:12:46.914Z,7.00
2022-09-28T21:15:13.574Z,7.00
2022-09-28T21:17:40.182Z,6.90
2022-09-28T21:20:07.145Z,6.90
2022-09-28T21:22:33.708Z,6.80
2022-09-28T21:25:00.280Z,7.50
2022-09-28T21:27:26.893Z,7.00
2022-09-28T21:29:53.576Z,7.70
2022-09-28T21:32:20.220Z,7.30
2022-09-28T21:34:46.850Z,7.60
2022-09-28T21:37:13.427Z,6.90
2022-09-28T21:39:40.049Z,6.80
2022-09-28T21:42:06.695Z,6.80
2022-09-28T21:44:33.291Z,6.80
2022-09-28T21:46:59.955Z,6.70
2022-09-28T21:49:26.522Z,6.70
2022-09-28T21:51:53.169Z,6.70
2022-09-28T21:54:19.927Z,6.80
2022-09-28T21:56:46.606Z,6.90
2022-09-28T21:59:13.166Z,6.90
2022-09-28T22:01:41.746Z,6.90
2022-09-28T22:04:08.686Z,6.80
2022-09-28T22:06:35.386Z,7.40
2022-09-28T22:09:02.032Z,6.70
2022-09-28T22:11:28.784Z,6.60
2022-09-28T22:13:59.301Z,6.50
2022-09-28T22:16:28.111Z,6.50
2022-09-28T22:18:54.824Z,6.40
2022-09-28T22:21:28.939Z,6.50
2022-09-28T22:24:01.070Z,6.50
2022-09-28T22:26:29.139Z,6.50
2022-09-28T22:28:56.808Z,6.40
2022-09-28T22:31:25.003Z,6.40
2022-09-28T22:33:51.793Z,6.40
2022-09-28T22:36:18.806Z,6.30
2022-09-28T22:38:46.135Z,6.30
2022-09-28T22:41:15.817Z,6.60
2022-09-28T22:43:43.285Z,6.30
2022-09-28T22:46:11.334Z,6.30
2022-09-28T22:48:38.436Z,6.20
2022-09-28T22:51:06.175Z,6.60
2022-09-28T22:53:33.246Z,6.40
2022-09-28T22:56:01.411Z,5.70
2022-09-28T23:00:57.059Z,5.60
2022-09-28T23:03:24.000Z,5.60
2022-09-28T23:05:54.432Z,5.90
2022-09-28T23:08:21.582Z,5.40
2022-09-28T23:10:48.296Z,5.50
2022-09-28T23:13:14.994Z,5.30
2022-09-28T23:15:41.782Z,5.30
2022-09-28T23:18:08.812Z,5.30
2022-09-28T23:20:36.536Z,5.20
2022-09-28T23:23:03.166Z,5.40
2022-09-28T23:25:29.920Z,5.40
2022-09-28T23:27:56.470Z,5.50
2022-09-28T23:30:23.728Z,5.40
2022-09-28T23:32:51.862Z,5.30
2022-09-28T23:35:18.536Z,5.20
2022-09-28T23:37:48.795Z,5.10
2022-09-28T23:40:15.421Z,5.00
2022-09-28T23:42:41.960Z,4.90
2022-09-28T23:45:08.900Z,4.90
2022-09-28T23:47:37.330Z,4.90
2022-09-28T23:50:04.813Z,5.00
2022-09-28T23:52:31.506Z,5.20
2022-09-28T23:54:58.069Z,5.80
2022-09-28T23:57:25.340Z,5.30
2022-09-28T23:59:52.000Z,5.70
